Главная страница
METAR-TAF:

METAR-TAF

Аэропорты :

Гаррисберг / Middletown, Пенсильвания, США

широта: 40-11-37N, долгота: 076-45-48W, высота над уровнем моря: 95 м

Текущие метеонаблюдения

Эта сводка был подготовлена 58 минут назад, в 13:56 UTC
Ветер 3 Узел от северо-западный
Температура 1°C
Влажность 75%
Давление 1025 hPa
Видимость: 16.1 км
Рассеянная облачность на высоте 25000 фута

METAR: KMDT 151356Z 31003KT 10SM BKN250 01/M03 A3028 RMK AO2 SLP257 T00061028

Время: 09:54 (14:54 UTC)

Прогноз

Эта сводка был подготовлена 3 часа и 0 минут назад, в 11:54 UTC
Прогноз действительный с 15-го 12 UTC до 16-го 12 UTC
Ветер Узел от северный
Видимость: 10 км
Рассеянная облачность на высоте 25000 фута
С 15-го 1500 UTC
Ветер 6 Узел от северо-западный
Видимость: 10 км
ясное небо

TAF: KMDT 151154Z 1512/1612 00000KT P6SM BKN250 FM151500 31006KT P6SM SKC

Метеонаблюдения и прогнозы для более 4000 аэропортов (сводки METAR и TAF).

Имеющиеся станции представлены на карте желтыми и красными точками.

Чтобы увидеть название станции, наведите на нее мышь.

Затем щелкните, чтобы увидеть метеонаблюдения и метеопрогнозы.

Управление картой: чтобы увеличить масштаб, щелкните зеленые кнопки с черным крестиком; чтобы уменьшить масштаб, щелкните зеленую кнопку с тире; для просмотра соседних карт щелкайте зеленые стрелки.


METAR-TAF: